sensor_id;sensor_type;location;lat;lon;timestamp;P1;durP1;ratioP1;P2;durP2;ratioP2
57663;SDS011;43493;53.098;6.064;2023-05-10T00:00:07;9.07;;;8.17;;
57663;SDS011;43493;53.098;6.064;2023-05-10T00:02:34;9.70;;;8.40;;
57663;SDS011;43493;53.098;6.064;2023-05-10T00:05:00;11.87;;;9.20;;
57663;SDS011;43493;53.098;6.064;2023-05-10T00:07:26;10.47;;;9.33;;
57663;SDS011;43493;53.098;6.064;2023-05-10T00:09:51;12.33;;;10.10;;
57663;SDS011;43493;53.098;6.064;2023-05-10T00:12:17;10.63;;;9.30;;
57663;SDS011;43493;53.098;6.064;2023-05-10T00:14:43;12.67;;;10.50;;
57663;SDS011;43493;53.098;6.064;2023-05-10T00:17:09;10.93;;;9.23;;
57663;SDS011;43493;53.098;6.064;2023-05-10T00:19:34;13.93;;;9.70;;
57663;SDS011;43493;53.098;6.064;2023-05-10T00:22:00;11.20;;;9.07;;
57663;SDS011;43493;53.098;6.064;2023-05-10T00:24:26;10.17;;;8.60;;
57663;SDS011;43493;53.098;6.064;2023-05-10T00:26:52;10.70;;;8.30;;
57663;SDS011;43493;53.098;6.064;2023-05-10T00:29:18;9.40;;;7.27;;
57663;SDS011;43493;53.098;6.064;2023-05-10T00:31:44;8.60;;;7.03;;
57663;SDS011;43493;53.098;6.064;2023-05-10T00:34:10;8.30;;;7.20;;
57663;SDS011;43493;53.098;6.064;2023-05-10T00:36:36;8.63;;;6.53;;
57663;SDS011;43493;53.098;6.064;2023-05-10T00:39:01;8.77;;;6.93;;
57663;SDS011;43493;53.098;6.064;2023-05-10T00:41:28;8.10;;;6.77;;
57663;SDS011;43493;53.098;6.064;2023-05-10T00:43:57;8.03;;;5.93;;
57663;SDS011;43493;53.098;6.064;2023-05-10T00:46:24;6.13;;;5.47;;
57663;SDS011;43493;53.098;6.064;2023-05-10T00:48:50;7.20;;;6.43;;
57663;SDS011;43493;53.098;6.064;2023-05-10T00:51:17;7.37;;;6.13;;
57663;SDS011;43493;53.098;6.064;2023-05-10T00:53:46;8.07;;;6.50;;
57663;SDS011;43493;53.098;6.064;2023-05-10T00:56:12;8.27;;;7.13;;
57663;SDS011;43493;53.098;6.064;2023-05-10T00:58:38;8.27;;;7.20;;
57663;SDS011;43493;53.098;6.064;2023-05-10T01:01:05;8.97;;;7.77;;
57663;SDS011;43493;53.098;6.064;2023-05-10T01:03:32;11.13;;;8.33;;
57663;SDS011;43493;53.098;6.064;2023-05-10T01:05:57;10.37;;;8.27;;
57663;SDS011;43493;53.098;6.064;2023-05-10T01:08:23;10.00;;;7.97;;
57663;SDS011;43493;53.098;6.064;2023-05-10T01:10:50;11.93;;;8.13;;
57663;SDS011;43493;53.098;6.064;2023-05-10T01:13:23;13.80;;;8.97;;
57663;SDS011;43493;53.098;6.064;2023-05-10T01:15:51;11.87;;;9.00;;
57663;SDS011;43493;53.098;6.064;2023-05-10T01:18:17;12.00;;;8.57;;
57663;SDS011;43493;53.098;6.064;2023-05-10T01:20:46;13.47;;;9.10;;
57663;SDS011;43493;53.098;6.064;2023-05-10T01:34:41;19.53;;;11.93;;
57663;SDS011;43493;53.098;6.064;2023-05-10T01:37:18;19.75;;;12.73;;
57663;SDS011;43493;53.098;6.064;2023-05-10T01:39:49;23.27;;;13.82;;
57663;SDS011;43493;53.098;6.064;2023-05-10T01:42:26;23.93;;;14.53;;
57663;SDS011;43493;53.098;6.064;2023-05-10T01:45:11;24.70;;;15.00;;
57663;SDS011;43493;53.098;6.064;2023-05-10T01:47:40;27.07;;;15.67;;
57663;SDS011;43493;53.098;6.064;2023-05-10T01:50:15;31.70;;;16.17;;
57663;SDS011;43493;53.098;6.064;2023-05-10T01:52:49;26.90;;;15.57;;
57663;SDS011;43493;53.098;6.064;2023-05-10T01:55:20;28.87;;;16.27;;
57663;SDS011;43493;53.098;6.064;2023-05-10T01:57:48;28.53;;;16.67;;
57663;SDS011;43493;53.098;6.064;2023-05-10T02:00:20;25.27;;;17.40;;
57663;SDS011;43493;53.098;6.064;2023-05-10T02:02:47;25.00;;;16.83;;
57663;SDS011;43493;53.098;6.064;2023-05-10T02:05:15;26.07;;;16.37;;
57663;SDS011;43493;53.098;6.064;2023-05-10T02:07:42;26.20;;;16.70;;
57663;SDS011;43493;53.098;6.064;2023-05-10T02:10:10;30.00;;;17.40;;
57663;SDS011;43493;53.098;6.064;2023-05-10T02:12:37;30.17;;;18.70;;
57663;SDS011;43493;53.098;6.064;2023-05-10T02:15:06;28.13;;;16.70;;
57663;SDS011;43493;53.098;6.064;2023-05-10T02:17:34;25.50;;;15.20;;
57663;SDS011;43493;53.098;6.064;2023-05-10T02:20:02;26.53;;;16.43;;
57663;SDS011;43493;53.098;6.064;2023-05-10T02:22:30;29.67;;;16.63;;
57663;SDS011;43493;53.098;6.064;2023-05-10T02:24:57;26.70;;;16.47;;
57663;SDS011;43493;53.098;6.064;2023-05-10T02:32:35;28.43;;;16.47;;
57663;SDS011;43493;53.098;6.064;2023-05-10T02:35:03;25.47;;;16.27;;
57663;SDS011;43493;53.098;6.064;2023-05-10T02:37:29;25.40;;;16.47;;
57663;SDS011;43493;53.098;6.064;2023-05-10T02:39:57;25.50;;;16.80;;
57663;SDS011;43493;53.098;6.064;2023-05-10T02:42:25;24.70;;;15.90;;
57663;SDS011;43493;53.098;6.064;2023-05-10T02:44:53;23.80;;;16.83;;
57663;SDS011;43493;53.098;6.064;2023-05-10T02:47:30;22.80;;;15.83;;
57663;SDS011;43493;53.098;6.064;2023-05-10T02:49:56;22.93;;;16.33;;
57663;SDS011;43493;53.098;6.064;2023-05-10T02:52:25;22.30;;;15.73;;
57663;SDS011;43493;53.098;6.064;2023-05-10T02:54:55;23.00;;;15.40;;
57663;SDS011;43493;53.098;6.064;2023-05-10T02:57:29;22.13;;;14.50;;
57663;SDS011;43493;53.098;6.064;2023-05-10T02:59:59;22.30;;;15.23;;
57663;SDS011;43493;53.098;6.064;2023-05-10T03:02:25;20.97;;;14.27;;
57663;SDS011;43493;53.098;6.064;2023-05-10T03:04:51;19.57;;;13.63;;
57663;SDS011;43493;53.098;6.064;2023-05-10T03:07:17;21.13;;;13.80;;
57663;SDS011;43493;53.098;6.064;2023-05-10T03:09:46;21.50;;;14.23;;
57663;SDS011;43493;53.098;6.064;2023-05-10T03:12:20;20.70;;;14.63;;
57663;SDS011;43493;53.098;6.064;2023-05-10T03:15:16;23.97;;;14.03;;
57663;SDS011;43493;53.098;6.064;2023-05-10T03:21:02;17.93;;;12.43;;
57663;SDS011;43493;53.098;6.064;2023-05-10T03:23:34;17.90;;;11.80;;
57663;SDS011;43493;53.098;6.064;2023-05-10T03:26:05;17.60;;;12.43;;
57663;SDS011;43493;53.098;6.064;2023-05-10T03:28:32;15.13;;;12.53;;
57663;SDS011;43493;53.098;6.064;2023-05-10T03:31:00;14.37;;;11.67;;
57663;SDS011;43493;53.098;6.064;2023-05-10T03:33:26;13.13;;;11.23;;
57663;SDS011;43493;53.098;6.064;2023-05-10T03:35:52;13.30;;;10.90;;
57663;SDS011;43493;53.098;6.064;2023-05-10T03:38:18;12.43;;;10.90;;
57663;SDS011;43493;53.098;6.064;2023-05-10T03:40:43;12.53;;;10.97;;
57663;SDS011;43493;53.098;6.064;2023-05-10T03:43:09;15.27;;;12.07;;
57663;SDS011;43493;53.098;6.064;2023-05-10T03:45:35;16.10;;;11.67;;
57663;SDS011;43493;53.098;6.064;2023-05-10T03:48:01;14.27;;;12.20;;
57663;SDS011;43493;53.098;6.064;2023-05-10T03:50:27;13.40;;;10.80;;
57663;SDS011;43493;53.098;6.064;2023-05-10T03:52:52;14.83;;;11.23;;
57663;SDS011;43493;53.098;6.064;2023-05-10T03:55:18;12.77;;;10.53;;
57663;SDS011;43493;53.098;6.064;2023-05-10T03:57:44;12.53;;;10.87;;
57663;SDS011;43493;53.098;6.064;2023-05-10T04:00:10;12.13;;;10.80;;
57663;SDS011;43493;53.098;6.064;2023-05-10T04:02:36;12.17;;;10.83;;
57663;SDS011;43493;53.098;6.064;2023-05-10T04:05:02;11.60;;;9.87;;
57663;SDS011;43493;53.098;6.064;2023-05-10T04:07:28;11.00;;;9.83;;
57663;SDS011;43493;53.098;6.064;2023-05-10T04:09:54;10.70;;;9.27;;
57663;SDS011;43493;53.098;6.064;2023-05-10T04:12:20;9.00;;;7.57;;
57663;SDS011;43493;53.098;6.064;2023-05-10T04:14:45;6.97;;;5.67;;
57663;SDS011;43493;53.098;6.064;2023-05-10T04:17:11;7.10;;;6.03;;
57663;SDS011;43493;53.098;6.064;2023-05-10T04:19:37;5.90;;;4.93;;
57663;SDS011;43493;53.098;6.064;2023-05-10T04:22:03;5.53;;;3.80;;
57663;SDS011;43493;53.098;6.064;2023-05-10T04:24:29;3.23;;;1.97;;
57663;SDS011;43493;53.098;6.064;2023-05-10T04:26:54;3.67;;;1.93;;
57663;SDS011;43493;53.098;6.064;2023-05-10T04:29:20;1.83;;;1.30;;
57663;SDS011;43493;53.098;6.064;2023-05-10T04:31:46;2.37;;;1.10;;
57663;SDS011;43493;53.098;6.064;2023-05-10T04:34:12;1.70;;;0.90;;
57663;SDS011;43493;53.098;6.064;2023-05-10T04:36:38;0.73;;;0.70;;
57663;SDS011;43493;53.098;6.064;2023-05-10T04:39:03;1.43;;;0.80;;
57663;SDS011;43493;53.098;6.064;2023-05-10T04:41:29;0.80;;;0.70;;
57663;SDS011;43493;53.098;6.064;2023-05-10T04:43:55;0.67;;;0.67;;
57663;SDS011;43493;53.098;6.064;2023-05-10T04:46:21;0.70;;;0.70;;
57663;SDS011;43493;53.098;6.064;2023-05-10T04:48:46;0.60;;;0.60;;
57663;SDS011;43493;53.098;6.064;2023-05-10T04:51:12;1.17;;;0.90;;
57663;SDS011;43493;53.098;6.064;2023-05-10T04:53:38;2.40;;;0.70;;
57663;SDS011;43493;53.098;6.064;2023-05-10T04:56:04;0.70;;;0.70;;
57663;SDS011;43493;53.098;6.064;2023-05-10T04:58:30;0.73;;;0.60;;
57663;SDS011;43493;53.098;6.064;2023-05-10T05:00:55;0.70;;;0.70;;
57663;SDS011;43493;53.098;6.064;2023-05-10T05:03:21;0.70;;;0.70;;
57663;SDS011;43493;53.098;6.064;2023-05-10T05:05:47;0.83;;;0.80;;
57663;SDS011;43493;53.098;6.064;2023-05-10T05:08:13;1.30;;;1.00;;
57663;SDS011;43493;53.098;6.064;2023-05-10T05:10:39;2.07;;;0.80;;
57663;SDS011;43493;53.098;6.064;2023-05-10T05:13:05;1.60;;;1.00;;
57663;SDS011;43493;53.098;6.064;2023-05-10T05:15:31;0.97;;;0.80;;
57663;SDS011;43493;53.098;6.064;2023-05-10T05:17:57;2.43;;;1.17;;
57663;SDS011;43493;53.098;6.064;2023-05-10T05:20:22;0.87;;;0.70;;
57663;SDS011;43493;53.098;6.064;2023-05-10T05:22:48;1.97;;;0.90;;
57663;SDS011;43493;53.098;6.064;2023-05-10T05:25:14;1.00;;;0.90;;
57663;SDS011;43493;53.098;6.064;2023-05-10T05:27:40;1.73;;;0.93;;
57663;SDS011;43493;53.098;6.064;2023-05-10T05:30:06;1.00;;;0.90;;
57663;SDS011;43493;53.098;6.064;2023-05-10T05:32:33;1.80;;;1.00;;
57663;SDS011;43493;53.098;6.064;2023-05-10T05:34:59;1.13;;;0.90;;
57663;SDS011;43493;53.098;6.064;2023-05-10T05:37:24;1.33;;;0.90;;
57663;SDS011;43493;53.098;6.064;2023-05-10T05:39:50;1.00;;;0.90;;
57663;SDS011;43493;53.098;6.064;2023-05-10T05:42:16;1.33;;;1.00;;
57663;SDS011;43493;53.098;6.064;2023-05-10T05:44:43;2.43;;;1.20;;
57663;SDS011;43493;53.098;6.064;2023-05-10T05:47:10;1.80;;;1.20;;
57663;SDS011;43493;53.098;6.064;2023-05-10T05:49:36;4.40;;;1.17;;
57663;SDS011;43493;53.098;6.064;2023-05-10T05:52:02;1.67;;;1.20;;
57663;SDS011;43493;53.098;6.064;2023-05-10T05:54:28;3.40;;;1.60;;
57663;SDS011;43493;53.098;6.064;2023-05-10T05:56:58;2.30;;;1.50;;
57663;SDS011;43493;53.098;6.064;2023-05-10T05:59:25;4.17;;;1.80;;
57663;SDS011;43493;53.098;6.064;2023-05-10T06:01:51;2.40;;;1.43;;
57663;SDS011;43493;53.098;6.064;2023-05-10T06:04:17;2.57;;;1.43;;
57663;SDS011;43493;53.098;6.064;2023-05-10T06:06:43;2.67;;;1.50;;
57663;SDS011;43493;53.098;6.064;2023-05-10T06:09:09;2.70;;;1.60;;
57663;SDS011;43493;53.098;6.064;2023-05-10T06:11:35;3.77;;;1.53;;
57663;SDS011;43493;53.098;6.064;2023-05-10T06:14:01;3.37;;;1.87;;
57663;SDS011;43493;53.098;6.064;2023-05-10T06:16:29;3.10;;;1.63;;
57663;SDS011;43493;53.098;6.064;2023-05-10T06:18:55;2.83;;;1.60;;
57663;SDS011;43493;53.098;6.064;2023-05-10T06:21:21;2.70;;;1.60;;
57663;SDS011;43493;53.098;6.064;2023-05-10T06:23:47;3.10;;;1.67;;
57663;SDS011;43493;53.098;6.064;2023-05-10T06:26:13;3.17;;;1.57;;
57663;SDS011;43493;53.098;6.064;2023-05-10T06:28:39;1.80;;;1.20;;
57663;SDS011;43493;53.098;6.064;2023-05-10T06:31:05;3.13;;;1.50;;
57663;SDS011;43493;53.098;6.064;2023-05-10T06:33:32;2.60;;;1.40;;
57663;SDS011;43493;53.098;6.064;2023-05-10T06:35:58;2.30;;;1.50;;
57663;SDS011;43493;53.098;6.064;2023-05-10T06:38:23;3.10;;;1.47;;
57663;SDS011;43493;53.098;6.064;2023-05-10T06:40:49;2.37;;;1.40;;
57663;SDS011;43493;53.098;6.064;2023-05-10T06:43:15;2.37;;;1.17;;
57663;SDS011;43493;53.098;6.064;2023-05-10T06:45:41;2.23;;;1.40;;
57663;SDS011;43493;53.098;6.064;2023-05-10T06:48:07;2.63;;;1.50;;
57663;SDS011;43493;53.098;6.064;2023-05-10T06:50:33;3.33;;;1.70;;
57663;SDS011;43493;53.098;6.064;2023-05-10T06:52:59;3.83;;;2.23;;
57663;SDS011;43493;53.098;6.064;2023-05-10T06:55:26;3.17;;;2.20;;
57663;SDS011;43493;53.098;6.064;2023-05-10T06:57:53;3.47;;;2.10;;
57663;SDS011;43493;53.098;6.064;2023-05-10T07:00:19;3.60;;;2.23;;
57663;SDS011;43493;53.098;6.064;2023-05-10T07:02:45;3.33;;;1.97;;
57663;SDS011;43493;53.098;6.064;2023-05-10T07:05:11;3.90;;;2.30;;
57663;SDS011;43493;53.098;6.064;2023-05-10T07:07:37;3.73;;;2.50;;
57663;SDS011;43493;53.098;6.064;2023-05-10T07:10:03;3.40;;;2.10;;
57663;SDS011;43493;53.098;6.064;2023-05-10T07:12:29;3.90;;;2.63;;
57663;SDS011;43493;53.098;6.064;2023-05-10T07:14:55;5.13;;;2.83;;
57663;SDS011;43493;53.098;6.064;2023-05-10T07:17:20;5.13;;;2.47;;
57663;SDS011;43493;53.098;6.064;2023-05-10T07:19:46;4.13;;;2.77;;
57663;SDS011;43493;53.098;6.064;2023-05-10T07:22:12;5.60;;;2.90;;
57663;SDS011;43493;53.098;6.064;2023-05-10T07:24:37;4.33;;;2.80;;
57663;SDS011;43493;53.098;6.064;2023-05-10T07:27:03;5.57;;;2.77;;
57663;SDS011;43493;53.098;6.064;2023-05-10T07:29:29;4.63;;;3.00;;
57663;SDS011;43493;53.098;6.064;2023-05-10T07:31:55;6.50;;;3.60;;
57663;SDS011;43493;53.098;6.064;2023-05-10T07:34:21;5.60;;;3.30;;
57663;SDS011;43493;53.098;6.064;2023-05-10T07:36:46;5.70;;;3.43;;
57663;SDS011;43493;53.098;6.064;2023-05-10T07:39:12;6.20;;;3.60;;
57663;SDS011;43493;53.098;6.064;2023-05-10T07:41:38;5.87;;;3.87;;
57663;SDS011;43493;53.098;6.064;2023-05-10T07:44:04;6.43;;;3.63;;
57663;SDS011;43493;53.098;6.064;2023-05-10T07:46:31;6.17;;;3.90;;
57663;SDS011;43493;53.098;6.064;2023-05-10T07:48:57;7.10;;;4.73;;
57663;SDS011;43493;53.098;6.064;2023-05-10T07:51:22;7.20;;;4.60;;
57663;SDS011;43493;53.098;6.064;2023-05-10T07:53:48;7.60;;;4.50;;
57663;SDS011;43493;53.098;6.064;2023-05-10T07:56:24;8.73;;;4.60;;
57663;SDS011;43493;53.098;6.064;2023-05-10T07:59:00;9.70;;;4.40;;
57663;SDS011;43493;53.098;6.064;2023-05-10T08:01:29;6.23;;;4.77;;
57663;SDS011;43493;53.098;6.064;2023-05-10T08:03:57;7.77;;;4.73;;
57663;SDS011;43493;53.098;6.064;2023-05-10T08:06:23;6.30;;;4.20;;
57663;SDS011;43493;53.098;6.064;2023-05-10T08:08:48;6.13;;;4.20;;
57663;SDS011;43493;53.098;6.064;2023-05-10T08:11:18;8.73;;;4.03;;
57663;SDS011;43493;53.098;6.064;2023-05-10T08:13:48;7.20;;;4.13;;
57663;SDS011;43493;53.098;6.064;2023-05-10T08:16:14;6.53;;;4.20;;
57663;SDS011;43493;53.098;6.064;2023-05-10T08:18:41;8.17;;;4.43;;
57663;SDS011;43493;53.098;6.064;2023-05-10T08:21:08;7.37;;;4.40;;
57663;SDS011;43493;53.098;6.064;2023-05-10T08:23:35;6.50;;;4.57;;
57663;SDS011;43493;53.098;6.064;2023-05-10T08:26:01;6.33;;;4.40;;
57663;SDS011;43493;53.098;6.064;2023-05-10T08:28:27;6.50;;;4.47;;
57663;SDS011;43493;53.098;6.064;2023-05-10T08:30:53;7.67;;;4.20;;
57663;SDS011;43493;53.098;6.064;2023-05-10T08:33:18;6.77;;;4.17;;
57663;SDS011;43493;53.098;6.064;2023-05-10T08:35:44;6.27;;;4.00;;
57663;SDS011;43493;53.098;6.064;2023-05-10T08:38:10;5.10;;;3.70;;
57663;SDS011;43493;53.098;6.064;2023-05-10T08:40:37;5.97;;;3.80;;
57663;SDS011;43493;53.098;6.064;2023-05-10T08:43:05;6.23;;;4.13;;
57663;SDS011;43493;53.098;6.064;2023-05-10T08:45:36;7.80;;;4.37;;
57663;SDS011;43493;53.098;6.064;2023-05-10T08:48:05;6.43;;;4.10;;
57663;SDS011;43493;53.098;6.064;2023-05-10T08:50:32;7.00;;;3.90;;
57663;SDS011;43493;53.098;6.064;2023-05-10T08:53:06;5.83;;;4.23;;
57663;SDS011;43493;53.098;6.064;2023-05-10T08:55:35;6.10;;;3.80;;
57663;SDS011;43493;53.098;6.064;2023-05-10T08:58:03;9.10;;;4.93;;
57663;SDS011;43493;53.098;6.064;2023-05-10T09:00:30;7.20;;;4.90;;
57663;SDS011;43493;53.098;6.064;2023-05-10T09:02:59;8.17;;;4.70;;
57663;SDS011;43493;53.098;6.064;2023-05-10T09:05:26;7.03;;;5.10;;
57663;SDS011;43493;53.098;6.064;2023-05-10T09:07:52;8.17;;;5.40;;
57663;SDS011;43493;53.098;6.064;2023-05-10T09:10:18;7.00;;;4.67;;
57663;SDS011;43493;53.098;6.064;2023-05-10T09:12:45;9.17;;;5.73;;
57663;SDS011;43493;53.098;6.064;2023-05-10T09:15:12;11.67;;;5.23;;
57663;SDS011;43493;53.098;6.064;2023-05-10T09:17:40;13.60;;;5.83;;
57663;SDS011;43493;53.098;6.064;2023-05-10T09:20:07;8.27;;;5.67;;
57663;SDS011;43493;53.098;6.064;2023-05-10T09:22:33;7.87;;;4.63;;
57663;SDS011;43493;53.098;6.064;2023-05-10T09:25:12;8.63;;;5.40;;
57663;SDS011;43493;53.098;6.064;2023-05-10T09:27:44;6.97;;;5.27;;
57663;SDS011;43493;53.098;6.064;2023-05-10T09:30:10;8.73;;;5.60;;
57663;SDS011;43493;53.098;6.064;2023-05-10T09:32:51;12.67;;;5.37;;
57663;SDS011;43493;53.098;6.064;2023-05-10T09:35:18;7.20;;;5.10;;
57663;SDS011;43493;53.098;6.064;2023-05-10T09:37:47;9.67;;;4.90;;
57663;SDS011;43493;53.098;6.064;2023-05-10T09:40:15;8.90;;;4.83;;
57663;SDS011;43493;53.098;6.064;2023-05-10T09:42:42;7.80;;;4.83;;
57663;SDS011;43493;53.098;6.064;2023-05-10T09:45:16;7.22;;;4.80;;
57663;SDS011;43493;53.098;6.064;2023-05-10T09:47:42;9.53;;;5.03;;
57663;SDS011;43493;53.098;6.064;2023-05-10T09:50:08;11.87;;;5.53;;
57663;SDS011;43493;53.098;6.064;2023-05-10T09:52:48;8.10;;;5.10;;
57663;SDS011;43493;53.098;6.064;2023-05-10T09:55:14;7.30;;;4.80;;
57663;SDS011;43493;53.098;6.064;2023-05-10T09:57:40;9.93;;;5.40;;
57663;SDS011;43493;53.098;6.064;2023-05-10T10:00:06;8.43;;;5.93;;
57663;SDS011;43493;53.098;6.064;2023-05-10T10:02:34;7.90;;;5.87;;
57663;SDS011;43493;53.098;6.064;2023-05-10T10:05:01;9.00;;;6.00;;
57663;SDS011;43493;53.098;6.064;2023-05-10T10:07:30;7.77;;;6.20;;
57663;SDS011;43493;53.098;6.064;2023-05-10T10:09:57;8.43;;;6.20;;
57663;SDS011;43493;53.098;6.064;2023-05-10T10:12:23;8.90;;;6.60;;
57663;SDS011;43493;53.098;6.064;2023-05-10T10:14:50;8.43;;;6.27;;
57663;SDS011;43493;53.098;6.064;2023-05-10T10:17:16;8.27;;;6.20;;
57663;SDS011;43493;53.098;6.064;2023-05-10T10:19:42;8.23;;;6.50;;
57663;SDS011;43493;53.098;6.064;2023-05-10T10:22:09;9.27;;;7.00;;
57663;SDS011;43493;53.098;6.064;2023-05-10T10:24:38;10.20;;;6.80;;
57663;SDS011;43493;53.098;6.064;2023-05-10T10:33:29;11.97;;;7.00;;
57663;SDS011;43493;53.098;6.064;2023-05-10T10:35:31;11.50;;;7.67;;
57663;SDS011;43493;53.098;6.064;2023-05-10T10:37:58;10.60;;;7.67;;
57663;SDS011;43493;53.098;6.064;2023-05-10T10:40:27;10.73;;;7.87;;
57663;SDS011;43493;53.098;6.064;2023-05-10T10:42:54;9.33;;;6.90;;
57663;SDS011;43493;53.098;6.064;2023-05-10T10:45:21;11.27;;;7.07;;
57663;SDS011;43493;53.098;6.064;2023-05-10T10:47:48;11.17;;;7.17;;
57663;SDS011;43493;53.098;6.064;2023-05-10T10:50:18;9.03;;;6.33;;
57663;SDS011;43493;53.098;6.064;2023-05-10T10:52:44;9.10;;;5.93;;
57663;SDS011;43493;53.098;6.064;2023-05-10T10:55:11;9.57;;;6.53;;
57663;SDS011;43493;53.098;6.064;2023-05-10T10:57:51;10.40;;;6.23;;
57663;SDS011;43493;53.098;6.064;2023-05-10T11:03:09;8.57;;;5.37;;
57663;SDS011;43493;53.098;6.064;2023-05-10T11:05:47;9.33;;;6.57;;
57663;SDS011;43493;53.098;6.064;2023-05-10T11:08:32;9.73;;;6.60;;
57663;SDS011;43493;53.098;6.064;2023-05-10T11:13:28;10.40;;;6.97;;
57663;SDS011;43493;53.098;6.064;2023-05-10T11:16:19;9.73;;;6.90;;
57663;SDS011;43493;53.098;6.064;2023-05-10T11:18:59;9.40;;;6.37;;
57663;SDS011;43493;53.098;6.064;2023-05-10T11:21:26;8.97;;;6.60;;
57663;SDS011;43493;53.098;6.064;2023-05-10T11:23:53;11.30;;;7.00;;
57663;SDS011;43493;53.098;6.064;2023-05-10T11:26:23;9.27;;;6.33;;
57663;SDS011;43493;53.098;6.064;2023-05-10T11:28:52;9.77;;;6.87;;
57663;SDS011;43493;53.098;6.064;2023-05-10T11:31:22;9.03;;;6.60;;
57663;SDS011;43493;53.098;6.064;2023-05-10T11:33:49;10.77;;;7.13;;
57663;SDS011;43493;53.098;6.064;2023-05-10T11:36:18;9.53;;;6.93;;
57663;SDS011;43493;53.098;6.064;2023-05-10T11:38:45;12.13;;;7.57;;
57663;SDS011;43493;53.098;6.064;2023-05-10T11:41:11;7.97;;;6.53;;
57663;SDS011;43493;53.098;6.064;2023-05-10T11:43:38;9.20;;;6.60;;
57663;SDS011;43493;53.098;6.064;2023-05-10T11:46:09;10.83;;;7.40;;
57663;SDS011;43493;53.098;6.064;2023-05-10T11:48:38;10.90;;;7.83;;
57663;SDS011;43493;53.098;6.064;2023-05-10T11:51:05;9.67;;;7.20;;
57663;SDS011;43493;53.098;6.064;2023-05-10T11:53:32;11.27;;;8.17;;
57663;SDS011;43493;53.098;6.064;2023-05-10T11:58:33;8.93;;;7.20;;
57663;SDS011;43493;53.098;6.064;2023-05-10T12:01:00;10.47;;;8.03;;
57663;SDS011;43493;53.098;6.064;2023-05-10T12:03:27;12.47;;;8.83;;
57663;SDS011;43493;53.098;6.064;2023-05-10T12:05:54;9.30;;;7.53;;
57663;SDS011;43493;53.098;6.064;2023-05-10T12:08:21;10.33;;;7.83;;
57663;SDS011;43493;53.098;6.064;2023-05-10T12:10:48;9.83;;;7.13;;
57663;SDS011;43493;53.098;6.064;2023-05-10T12:13:14;11.07;;;7.60;;
57663;SDS011;43493;53.098;6.064;2023-05-10T12:15:41;10.67;;;7.23;;
57663;SDS011;43493;53.098;6.064;2023-05-10T12:18:10;9.63;;;7.73;;
57663;SDS011;43493;53.098;6.064;2023-05-10T12:20:39;8.73;;;6.97;;
57663;SDS011;43493;53.098;6.064;2023-05-10T12:23:07;11.70;;;7.80;;
57663;SDS011;43493;53.098;6.064;2023-05-10T12:25:37;10.73;;;7.23;;
57663;SDS011;43493;53.098;6.064;2023-05-10T12:28:05;8.23;;;6.70;;
57663;SDS011;43493;53.098;6.064;2023-05-10T12:30:32;9.97;;;7.47;;
57663;SDS011;43493;53.098;6.064;2023-05-10T12:33:07;7.83;;;6.13;;
57663;SDS011;43493;53.098;6.064;2023-05-10T12:35:43;9.75;;;7.30;;
57663;SDS011;43493;53.098;6.064;2023-05-10T12:38:24;9.03;;;6.97;;
57663;SDS011;43493;53.098;6.064;2023-05-10T12:40:50;8.47;;;6.23;;
57663;SDS011;43493;53.098;6.064;2023-05-10T12:43:16;9.50;;;5.87;;
57663;SDS011;43493;53.098;6.064;2023-05-10T12:45:42;9.27;;;6.07;;
57663;SDS011;43493;53.098;6.064;2023-05-10T12:48:12;8.27;;;5.50;;
57663;SDS011;43493;53.098;6.064;2023-05-10T12:50:38;6.63;;;4.63;;
57663;SDS011;43493;53.098;6.064;2023-05-10T12:53:04;7.00;;;5.03;;
57663;SDS011;43493;53.098;6.064;2023-05-10T12:55:30;7.60;;;5.70;;
57663;SDS011;43493;53.098;6.064;2023-05-10T12:57:55;7.10;;;5.40;;
57663;SDS011;43493;53.098;6.064;2023-05-10T13:00:21;6.90;;;5.47;;
57663;SDS011;43493;53.098;6.064;2023-05-10T13:02:47;7.83;;;5.77;;
57663;SDS011;43493;53.098;6.064;2023-05-10T13:05:13;6.53;;;4.57;;
57663;SDS011;43493;53.098;6.064;2023-05-10T13:07:38;7.07;;;5.10;;
57663;SDS011;43493;53.098;6.064;2023-05-10T13:10:05;7.20;;;5.40;;
57663;SDS011;43493;53.098;6.064;2023-05-10T13:12:31;7.87;;;4.93;;
57663;SDS011;43493;53.098;6.064;2023-05-10T13:14:57;6.60;;;4.90;;
57663;SDS011;43493;53.098;6.064;2023-05-10T13:17:23;8.43;;;5.97;;
57663;SDS011;43493;53.098;6.064;2023-05-10T13:19:50;7.90;;;5.20;;
57663;SDS011;43493;53.098;6.064;2023-05-10T13:22:16;8.13;;;4.57;;
57663;SDS011;43493;53.098;6.064;2023-05-10T13:24:42;6.50;;;5.23;;
57663;SDS011;43493;53.098;6.064;2023-05-10T13:27:07;7.70;;;5.40;;
57663;SDS011;43493;53.098;6.064;2023-05-10T13:29:33;8.07;;;5.63;;
57663;SDS011;43493;53.098;6.064;2023-05-10T13:31:59;9.90;;;6.10;;
57663;SDS011;43493;53.098;6.064;2023-05-10T13:34:25;8.53;;;5.20;;
57663;SDS011;43493;53.098;6.064;2023-05-10T13:36:52;7.40;;;5.77;;
57663;SDS011;43493;53.098;6.064;2023-05-10T13:39:19;10.87;;;6.30;;
57663;SDS011;43493;53.098;6.064;2023-05-10T13:41:45;10.33;;;7.73;;
57663;SDS011;43493;53.098;6.064;2023-05-10T13:44:12;8.80;;;7.20;;
57663;SDS011;43493;53.098;6.064;2023-05-10T13:46:39;8.90;;;7.53;;
57663;SDS011;43493;53.098;6.064;2023-05-10T13:49:05;9.80;;;7.40;;
57663;SDS011;43493;53.098;6.064;2023-05-10T13:51:31;10.13;;;7.47;;
57663;SDS011;43493;53.098;6.064;2023-05-10T13:53:58;10.17;;;7.17;;
57663;SDS011;43493;53.098;6.064;2023-05-10T13:56:24;10.17;;;7.67;;
57663;SDS011;43493;53.098;6.064;2023-05-10T13:58:49;9.23;;;7.23;;
57663;SDS011;43493;53.098;6.064;2023-05-10T14:01:15;11.13;;;7.00;;
57663;SDS011;43493;53.098;6.064;2023-05-10T14:03:41;9.47;;;6.60;;
57663;SDS011;43493;53.098;6.064;2023-05-10T14:06:07;8.37;;;6.07;;
57663;SDS011;43493;53.098;6.064;2023-05-10T14:08:33;10.03;;;6.90;;
57663;SDS011;43493;53.098;6.064;2023-05-10T14:11:00;9.40;;;6.60;;
57663;SDS011;43493;53.098;6.064;2023-05-10T14:13:26;9.73;;;7.00;;
57663;SDS011;43493;53.098;6.064;2023-05-10T14:15:52;9.60;;;6.63;;
57663;SDS011;43493;53.098;6.064;2023-05-10T14:18:19;8.40;;;5.50;;
57663;SDS011;43493;53.098;6.064;2023-05-10T14:20:44;7.40;;;5.00;;
57663;SDS011;43493;53.098;6.064;2023-05-10T14:23:10;10.03;;;3.97;;
57663;SDS011;43493;53.098;6.064;2023-05-10T14:25:37;7.90;;;4.30;;
57663;SDS011;43493;53.098;6.064;2023-05-10T14:28:05;7.83;;;3.77;;
57663;SDS011;43493;53.098;6.064;2023-05-10T14:30:31;7.43;;;3.50;;
57663;SDS011;43493;53.098;6.064;2023-05-10T14:32:59;6.90;;;4.30;;
57663;SDS011;43493;53.098;6.064;2023-05-10T14:35:26;6.33;;;3.47;;
57663;SDS011;43493;53.098;6.064;2023-05-10T14:37:52;5.80;;;4.60;;
57663;SDS011;43493;53.098;6.064;2023-05-10T14:40:18;7.97;;;5.60;;
57663;SDS011;43493;53.098;6.064;2023-05-10T14:42:44;9.27;;;6.97;;
57663;SDS011;43493;53.098;6.064;2023-05-10T14:45:10;8.60;;;6.70;;
57663;SDS011;43493;53.098;6.064;2023-05-10T14:47:37;9.73;;;7.53;;
57663;SDS011;43493;53.098;6.064;2023-05-10T14:50:02;8.90;;;7.03;;
57663;SDS011;43493;53.098;6.064;2023-05-10T14:52:28;8.47;;;6.70;;
57663;SDS011;43493;53.098;6.064;2023-05-10T14:54:54;7.47;;;6.37;;
57663;SDS011;43493;53.098;6.064;2023-05-10T14:57:20;8.20;;;6.33;;
57663;SDS011;43493;53.098;6.064;2023-05-10T14:59:46;7.47;;;5.23;;
57663;SDS011;43493;53.098;6.064;2023-05-10T15:02:11;7.07;;;4.53;;
57663;SDS011;43493;53.098;6.064;2023-05-10T15:04:37;7.27;;;5.33;;
57663;SDS011;43493;53.098;6.064;2023-05-10T15:07:03;9.03;;;5.50;;
57663;SDS011;43493;53.098;6.064;2023-05-10T15:09:29;7.57;;;5.87;;
57663;SDS011;43493;53.098;6.064;2023-05-10T15:11:55;7.47;;;5.80;;
57663;SDS011;43493;53.098;6.064;2023-05-10T15:14:21;7.37;;;5.30;;